createdAt,value
2019-05-25T00:02:42.915Z,100244.09
2019-05-25T00:05:29.247Z,100243.16
2019-05-25T00:08:15.253Z,100241.27
2019-05-25T00:11:01.265Z,100239.45
2019-05-25T00:13:47.631Z,100244.53
2019-05-25T00:16:33.924Z,100239.37
2019-05-25T00:19:19.864Z,100249.80
2019-05-25T00:22:06.186Z,100244.28
2019-05-25T00:24:52.328Z,100236.20
2019-05-25T00:27:38.377Z,100242.01
2019-05-25T00:30:24.778Z,100252.48
2019-05-25T00:33:10.687Z,100255.69
2019-05-25T00:35:56.964Z,100249.84
2019-05-25T00:38:43.021Z,100253.55
2019-05-25T00:41:29.216Z,100258.95
2019-05-25T00:44:15.421Z,100258.28
2019-05-25T00:47:01.531Z,100259.23
2019-05-25T00:49:47.603Z,100253.21
2019-05-25T00:52:33.889Z,100261.66
2019-05-25T00:55:19.986Z,100257.94
2019-05-25T00:58:06.101Z,100260.58
2019-05-25T01:00:52.448Z,100263.53
2019-05-25T01:03:38.578Z,100260.07
2019-05-25T01:06:24.767Z,100264.02
2019-05-25T01:09:10.831Z,100256.40
2019-05-25T01:11:56.987Z,100259.19
2019-05-25T01:14:43.266Z,100259.86
2019-05-25T01:17:29.332Z,100256.34
2019-05-25T01:20:16.233Z,100259.94
2019-05-25T01:23:02.382Z,100265.34
2019-05-25T01:25:48.476Z,100269.36
2019-05-25T01:28:37.593Z,100273.12
2019-05-25T01:31:22.897Z,100271.59
2019-05-25T01:34:08.966Z,100276.44
2019-05-25T01:36:55.146Z,100273.74
2019-05-25T01:39:41.401Z,100278.03
2019-05-25T01:42:27.462Z,100282.22
2019-05-25T01:45:13.867Z,100285.13
2019-05-25T01:48:00.136Z,100282.64
2019-05-25T01:50:46.393Z,100288.19
2019-05-25T01:53:32.491Z,100282.42
2019-05-25T01:56:18.722Z,100288.45
2019-05-25T01:59:05.051Z,100288.23
2019-05-25T02:01:51.226Z,100283.97
2019-05-25T02:04:37.311Z,100282.59
2019-05-25T02:07:23.371Z,100278.20
2019-05-25T02:10:10.110Z,100281.00
2019-05-25T02:12:56.376Z,100278.85
2019-05-25T02:15:42.551Z,100278.07
2019-05-25T02:18:28.746Z,100278.34
2019-05-25T02:21:14.821Z,100273.75
2019-05-25T02:24:01.026Z,100283.61
2019-05-25T02:26:47.038Z,100284.55
2019-05-25T02:29:33.041Z,100282.97
2019-05-25T02:32:19.351Z,100285.42
2019-05-25T02:35:06.077Z,100289.86
2019-05-25T02:37:52.104Z,100296.03
2019-05-25T02:40:38.457Z,100299.34
2019-05-25T02:43:24.546Z,100298.89
2019-05-25T02:46:10.719Z,100301.70
2019-05-25T02:48:56.961Z,100312.19
2019-05-25T02:51:43.011Z,100311.02
2019-05-25T02:54:29.103Z,100315.47
2019-05-25T02:57:15.181Z,100319.86
2019-05-25T03:00:01.354Z,100320.50
2019-05-25T03:02:47.723Z,100318.10
2019-05-25T03:05:33.683Z,100321.59
2019-05-25T03:08:19.821Z,100321.37
2019-05-25T03:11:06.157Z,100318.10
2019-05-25T03:13:52.207Z,100316.55
2019-05-25T03:16:38.304Z,100321.41
2019-05-25T03:19:24.496Z,100328.63
2019-05-25T03:22:10.772Z,100325.92
2019-05-25T03:24:56.995Z,100329.45
2019-05-25T03:27:43.087Z,100327.69
2019-05-25T03:30:31.842Z,100331.52
2019-05-25T03:33:18.023Z,100333.13
2019-05-25T03:36:04.346Z,100326.81
2019-05-25T03:38:50.408Z,100325.19
2019-05-25T03:41:36.658Z,100329.09
2019-05-25T03:44:22.624Z,100329.49
2019-05-25T03:47:08.812Z,100327.91
2019-05-25T03:49:55.041Z,100333.30
2019-05-25T03:52:41.126Z,100334.62
2019-05-25T03:55:27.277Z,100337.98
2019-05-25T03:58:13.748Z,100336.10
2019-05-25T04:00:59.899Z,100334.72
2019-05-25T04:03:45.911Z,100341.71
2019-05-25T04:06:32.263Z,100349.32
2019-05-25T04:09:18.311Z,100340.34
2019-05-25T04:12:04.662Z,100338.80
2019-05-25T04:14:50.587Z,100335.82
2019-05-25T04:17:36.801Z,100343.79
2019-05-25T04:20:23.066Z,100339.34
2019-05-25T04:23:09.152Z,100341.38
2019-05-25T04:25:55.325Z,100340.66
2019-05-25T04:28:41.513Z,100348.64
2019-05-25T04:31:27.599Z,100354.80
2019-05-25T04:34:13.687Z,100354.25
2019-05-25T04:36:59.882Z,100363.28
2019-05-25T04:39:45.937Z,100358.00
2019-05-25T04:42:32.231Z,100365.11
2019-05-25T04:45:18.322Z,100363.91
2019-05-25T04:48:04.407Z,100370.77
2019-05-25T04:50:50.718Z,100374.27
2019-05-25T04:53:36.702Z,100368.81
2019-05-25T04:56:38.158Z,100372.06
2019-05-25T04:59:10.582Z,100371.85
2019-05-25T05:01:56.676Z,100379.09
2019-05-25T05:04:42.782Z,100379.09
2019-05-25T05:07:29.011Z,100378.26
2019-05-25T05:10:15.366Z,100375.91
2019-05-25T05:13:01.257Z,100374.03
2019-05-25T05:15:47.381Z,100379.85
2019-05-25T05:18:33.516Z,100377.94
2019-05-25T05:21:19.741Z,100377.11
2019-05-25T05:24:05.872Z,100377.17
2019-05-25T05:26:55.785Z,100380.00
2019-05-25T05:29:40.327Z,100379.67
2019-05-25T05:32:28.004Z,100380.86
2019-05-25T05:35:14.247Z,100383.15
2019-05-25T05:38:05.758Z,100386.55
2019-05-25T05:40:52.467Z,100381.95
2019-05-25T05:43:39.453Z,100382.46
2019-05-25T05:46:27.457Z,100377.23
2019-05-25T05:49:13.652Z,100376.88
2019-05-25T05:52:02.886Z,100376.37
2019-05-25T05:54:49.967Z,100375.34
2019-05-25T05:57:35.916Z,100377.23
2019-05-25T06:00:22.287Z,100376.13
2019-05-25T06:03:08.251Z,100387.17
2019-05-25T06:05:54.336Z,100382.09
2019-05-25T06:08:40.651Z,100381.59
2019-05-25T06:11:26.676Z,100385.97
2019-05-25T06:14:12.951Z,100388.48
2019-05-25T06:16:59.296Z,100389.80
2019-05-25T06:19:45.413Z,100385.42
2019-05-25T06:22:31.517Z,100388.98
2019-05-25T06:25:17.659Z,100393.81
2019-05-25T06:28:03.670Z,100385.65
2019-05-25T06:30:49.637Z,100393.55
2019-05-25T06:33:35.772Z,100395.41
2019-05-25T06:36:21.947Z,100399.22
2019-05-25T06:39:08.187Z,100397.59
2019-05-25T06:41:54.282Z,100400.31
2019-05-25T06:44:40.577Z,100402.83
2019-05-25T06:47:27.006Z,100405.97
2019-05-25T06:50:13.446Z,100401.75
2019-05-25T06:52:59.443Z,100403.48
2019-05-25T06:55:45.552Z,100404.92
2019-05-25T06:58:31.696Z,100408.97
2019-05-25T07:01:18.136Z,100414.88
2019-05-25T07:04:04.067Z,100414.13
2019-05-25T07:06:50.176Z,100415.03
2019-05-25T07:09:36.506Z,100416.81
2019-05-25T07:12:22.536Z,100423.36
2019-05-25T07:15:09.118Z,100425.28
2019-05-25T07:17:55.476Z,100421.64
2019-05-25T07:20:41.406Z,100426.80
2019-05-25T07:23:27.592Z,100422.92
2019-05-25T07:26:13.719Z,100426.87
2019-05-25T07:28:59.796Z,100432.53
2019-05-25T07:31:46.066Z,100434.52
2019-05-25T07:34:32.093Z,100435.99
2019-05-25T07:37:18.196Z,100441.41
2019-05-25T07:40:05.013Z,100439.88
2019-05-25T07:42:51.209Z,100442.02
2019-05-25T07:45:37.376Z,100445.41
2019-05-25T07:48:23.660Z,100441.53
2019-05-25T07:51:09.810Z,100447.96
2019-05-25T07:53:56.041Z,100434.83
2019-05-25T07:56:42.102Z,100447.75
2019-05-25T07:59:28.317Z,100442.31
2019-05-25T08:02:14.561Z,100440.45
2019-05-25T08:05:00.621Z,100447.25
2019-05-25T08:07:46.752Z,100450.73
2019-05-25T08:10:33.058Z,100445.22
2019-05-25T08:13:19.079Z,100441.45
2019-05-25T08:16:05.151Z,100436.60
2019-05-25T08:18:51.423Z,100444.14
2019-05-25T08:21:37.399Z,100441.69
2019-05-25T08:24:23.816Z,100439.72
2019-05-25T08:27:09.897Z,100441.95
2019-05-25T08:29:56.002Z,100435.23
2019-05-25T08:32:42.092Z,100438.77
2019-05-25T08:35:28.272Z,100441.13
2019-05-25T08:38:14.522Z,100440.11
2019-05-25T08:41:00.757Z,100430.51
2019-05-25T08:43:46.811Z,100437.31
2019-05-25T08:46:32.919Z,100438.41
2019-05-25T08:49:19.232Z,100432.23
2019-05-25T08:52:05.366Z,100447.03
2019-05-25T08:54:51.619Z,100441.22
2019-05-25T08:57:39.788Z,100442.92
2019-05-25T09:00:25.769Z,100442.12
2019-05-25T09:03:11.917Z,100453.92
2019-05-25T09:05:58.211Z,100445.09
2019-05-25T09:08:45.838Z,100442.27
2019-05-25T09:11:32.047Z,100433.74
2019-05-25T09:14:18.167Z,100426.19
2019-05-25T09:17:04.218Z,100418.05
2019-05-25T09:19:50.361Z,100400.50
2019-05-25T09:22:36.491Z,100408.95
2019-05-25T09:25:22.728Z,100410.13
2019-05-25T09:28:08.965Z,100419.36
2019-05-25T09:30:55.309Z,100418.80
2019-05-25T09:33:41.291Z,100429.34
2019-05-25T09:36:27.744Z,100429.47
2019-05-25T09:39:13.843Z,100423.94
2019-05-25T09:41:59.826Z,100420.45
2019-05-25T09:44:46.086Z,100407.48
2019-05-25T09:47:32.317Z,100414.21
2019-05-25T09:50:18.642Z,100423.84
2019-05-25T09:53:04.658Z,100425.69
2019-05-25T09:55:50.531Z,100422.44
2019-05-25T09:58:36.756Z,100434.51
2019-05-25T10:01:22.852Z,100430.67
2019-05-25T10:04:09.016Z,100436.78
2019-05-25T10:06:55.408Z,100432.61
2019-05-25T10:09:41.546Z,100432.16
2019-05-25T10:12:27.706Z,100420.89
2019-05-25T10:15:14.926Z,100428.10
2019-05-25T10:18:17.913Z,100438.05
2019-05-25T10:21:04.139Z,100437.59
2019-05-25T10:23:53.258Z,100450.50
2019-05-25T10:26:39.467Z,100444.43
2019-05-25T10:29:36.652Z,100441.32
2019-05-25T10:32:18.652Z,100437.02
2019-05-25T10:35:05.451Z,100432.41
2019-05-25T10:37:56.242Z,100420.34
2019-05-25T10:40:42.521Z,100412.33
2019-05-25T10:43:28.586Z,100419.92
2019-05-25T10:46:14.831Z,100412.20
2019-05-25T10:49:00.931Z,100424.50
2019-05-25T10:51:47.286Z,100430.08
2019-05-25T10:54:33.492Z,100424.04
2019-05-25T10:57:19.606Z,100416.83
2019-05-25T11:00:05.972Z,100420.30
2019-05-25T11:02:51.778Z,100422.56
2019-05-25T11:05:37.977Z,100426.13
2019-05-25T11:08:24.272Z,100416.80
2019-05-25T11:11:10.412Z,100428.73
2019-05-25T11:13:56.517Z,100420.78
2019-05-25T11:16:42.957Z,100425.91
2019-05-25T11:19:28.744Z,100434.41
2019-05-25T11:22:14.986Z,100425.61
2019-05-25T11:25:01.123Z,100414.21
2019-05-25T11:27:47.336Z,100413.06
2019-05-25T11:30:33.663Z,100407.55
2019-05-25T11:33:19.552Z,100413.39
2019-05-25T11:36:05.717Z,100421.62
2019-05-25T11:38:51.968Z,100419.30
2019-05-25T11:41:38.051Z,100416.83
2019-05-25T11:44:24.931Z,100414.23
2019-05-25T11:47:11.458Z,100419.19
2019-05-25T11:49:57.576Z,100420.19
2019-05-25T11:52:43.782Z,100415.19
2019-05-25T11:55:29.862Z,100421.38
2019-05-25T11:58:15.822Z,100411.69
2019-05-25T12:01:01.957Z,100411.44
2019-05-25T12:03:48.013Z,100407.05
2019-05-25T12:06:34.127Z,100403.69
2019-05-25T12:09:20.341Z,100395.12
2019-05-25T12:12:06.422Z,100398.02
2019-05-25T12:14:52.512Z,100390.58
2019-05-25T12:17:38.772Z,100398.87
2019-05-25T12:20:24.826Z,100403.61
2019-05-25T12:23:11.198Z,100413.59
2019-05-25T12:25:57.717Z,100399.83
2019-05-25T12:28:43.756Z,100403.67
2019-05-25T12:31:30.022Z,100396.59
2019-05-25T12:34:16.077Z,100394.96
2019-05-25T12:37:02.261Z,100400.64
2019-05-25T12:39:48.327Z,100406.13
2019-05-25T12:42:34.391Z,100394.06
2019-05-25T12:45:22.528Z,100389.44
2019-05-25T12:48:08.852Z,100390.11
2019-05-25T12:50:54.861Z,100396.19
2019-05-25T12:53:40.971Z,100390.78
2019-05-25T12:56:27.176Z,100381.82
2019-05-25T12:59:13.223Z,100395.31
2019-05-25T13:01:59.357Z,100398.38
2019-05-25T13:04:45.561Z,100397.19
2019-05-25T13:07:31.683Z,100389.47
2019-05-25T13:10:17.957Z,100405.40
2019-05-25T13:13:03.764Z,100394.64
2019-05-25T13:15:49.852Z,100387.52
2019-05-25T13:18:36.017Z,100394.96
2019-05-25T13:21:22.127Z,100392.27
2019-05-25T13:24:08.231Z,100388.45
2019-05-25T13:26:54.619Z,100382.80
2019-05-25T13:29:40.747Z,100379.24
2019-05-25T13:32:27.005Z,100377.39
2019-05-25T13:35:13.464Z,100382.27
2019-05-25T13:37:59.881Z,100382.72
2019-05-25T13:40:46.137Z,100384.20
2019-05-25T13:43:32.201Z,100373.70
2019-05-25T13:46:18.244Z,100387.01
2019-05-25T13:49:04.387Z,100388.80
2019-05-25T13:51:50.460Z,100389.53
2019-05-25T13:54:36.655Z,100380.52
2019-05-25T13:57:23.026Z,100386.19
2019-05-25T14:00:10.142Z,100385.94
2019-05-25T14:02:56.866Z,100392.80
2019-05-25T14:05:43.033Z,100383.92
2019-05-25T14:08:29.127Z,100383.48
2019-05-25T14:11:15.197Z,100390.23
2019-05-25T14:14:01.417Z,100406.86
2019-05-25T14:16:47.586Z,100395.17
2019-05-25T14:19:33.782Z,100391.41
2019-05-25T14:22:19.918Z,100394.18
2019-05-25T14:25:06.860Z,100382.13
2019-05-25T14:27:52.686Z,100383.59
2019-05-25T14:30:38.638Z,100385.91
2019-05-25T14:33:24.837Z,100379.47
2019-05-25T14:36:11.067Z,100391.27
2019-05-25T14:38:57.089Z,100391.89
2019-05-25T14:41:43.146Z,100397.19
2019-05-25T14:44:29.396Z,100385.86
2019-05-25T14:47:15.580Z,100388.38
2019-05-25T14:50:01.990Z,100377.68
2019-05-25T14:52:47.901Z,100380.08
2019-05-25T14:55:33.942Z,100383.84
2019-05-25T14:58:20.207Z,100383.91
2019-05-25T15:01:06.225Z,100371.34
2019-05-25T15:03:52.452Z,100373.55
2019-05-25T15:06:38.824Z,100376.07
2019-05-25T15:09:24.842Z,100372.33
2019-05-25T15:12:11.008Z,100383.08
2019-05-25T15:14:57.317Z,100373.75
2019-05-25T15:17:43.535Z,100378.48
2019-05-25T15:20:29.957Z,100367.00
2019-05-25T15:23:16.280Z,100368.20
2019-05-25T15:26:02.293Z,100362.97
2019-05-25T15:28:48.574Z,100358.36
2019-05-25T15:31:34.583Z,100361.92
2019-05-25T15:34:20.721Z,100367.79
2019-05-25T15:37:06.976Z,100370.08
2019-05-25T15:39:53.082Z,100360.61
2019-05-25T15:42:39.206Z,100350.59
2019-05-25T15:45:25.611Z,100355.09
2019-05-25T15:48:11.812Z,100354.94
2019-05-25T15:50:58.086Z,100355.13
2019-05-25T15:53:44.447Z,100357.84
2019-05-25T15:56:30.509Z,100360.20
2019-05-25T15:59:16.672Z,100358.53
2019-05-25T16:02:02.674Z,100362.41
2019-05-25T16:04:48.657Z,100363.25
2019-05-25T16:07:37.588Z,100365.00
2019-05-25T16:10:23.644Z,100355.97
2019-05-25T16:13:09.731Z,100353.83
2019-05-25T16:15:55.876Z,100361.58
2019-05-25T16:18:41.979Z,100353.53
2019-05-25T16:21:28.057Z,100345.70
2019-05-25T16:24:14.896Z,100351.18
2019-05-25T16:27:00.931Z,100349.17
2019-05-25T16:29:47.051Z,100357.00
2019-05-25T16:32:33.323Z,100345.61
2019-05-25T16:35:19.387Z,100343.91
2019-05-25T16:38:05.880Z,100335.06
2019-05-25T16:40:52.356Z,100328.89
2019-05-25T16:43:38.297Z,100336.69
2019-05-25T16:46:24.669Z,100324.91
2019-05-25T16:49:10.691Z,100331.24
2019-05-25T16:51:56.866Z,100331.22
2019-05-25T16:54:43.080Z,100332.13
2019-05-25T16:57:29.077Z,100340.03
2019-05-25T17:00:25.102Z,100336.33
2019-05-25T17:03:26.906Z,100335.01
2019-05-25T17:05:58.946Z,100330.71
2019-05-25T17:08:45.502Z,100339.30
2019-05-25T17:11:31.752Z,100326.80
2019-05-25T17:14:17.831Z,100330.61
2019-05-25T17:17:04.161Z,100334.47
2019-05-25T17:19:49.966Z,100330.12
2019-05-25T17:22:36.341Z,100336.48
2019-05-25T17:25:22.977Z,100333.56
2019-05-25T17:28:09.357Z,100326.38
2019-05-25T17:30:55.622Z,100331.50
2019-05-25T17:33:45.880Z,100337.34
2019-05-25T17:36:29.731Z,100322.34
2019-05-25T17:39:15.871Z,100325.78
2019-05-25T17:42:01.977Z,100324.45
2019-05-25T17:44:48.031Z,100322.34
2019-05-25T17:47:34.966Z,100331.23
2019-05-25T17:50:21.251Z,100329.67
2019-05-25T17:53:07.102Z,100333.03
2019-05-25T17:55:53.436Z,100325.53
2019-05-25T17:58:39.457Z,100333.05
2019-05-25T18:01:25.796Z,100343.05
2019-05-25T18:04:12.062Z,100344.28
2019-05-25T18:06:58.194Z,100344.61
2019-05-25T18:09:44.344Z,100351.38
2019-05-25T18:12:30.403Z,100347.23
2019-05-25T18:15:16.471Z,100346.63
2019-05-25T18:18:03.152Z,100346.33
2019-05-25T18:20:49.694Z,100345.69
2019-05-25T18:23:36.073Z,100352.34
2019-05-25T18:26:22.616Z,100362.99
2019-05-25T18:29:08.622Z,100376.13
2019-05-25T18:31:54.801Z,100371.63
2019-05-25T18:34:41.131Z,100368.12
2019-05-25T18:37:27.257Z,100357.67
2019-05-25T18:40:13.536Z,100362.81
2019-05-25T18:42:59.492Z,100358.84
2019-05-25T18:45:45.601Z,100366.00
2019-05-25T18:48:34.367Z,100361.83
2019-05-25T18:51:20.057Z,100362.34
2019-05-25T18:54:06.011Z,100374.45
2019-05-25T18:56:52.191Z,100366.66
2019-05-25T18:59:38.197Z,100370.30
2019-05-25T19:02:24.407Z,100373.27
2019-05-25T19:05:10.744Z,100371.61
2019-05-25T19:07:56.488Z,100374.88
2019-05-25T19:10:42.543Z,100372.85
2019-05-25T19:13:29.017Z,100370.16
2019-05-25T19:16:15.166Z,100369.98
2019-05-25T19:19:01.472Z,100375.80
2019-05-25T19:21:47.718Z,100379.41
2019-05-25T19:24:33.846Z,100382.80
2019-05-25T19:27:20.055Z,100389.27
2019-05-25T19:30:06.318Z,100391.22
2019-05-25T19:32:52.282Z,100392.18
2019-05-25T19:35:38.391Z,100388.97
2019-05-25T19:38:24.577Z,100394.24
2019-05-25T19:41:10.638Z,100401.23
2019-05-25T19:43:57.012Z,100402.73
2019-05-25T19:46:43.456Z,100403.00
2019-05-25T19:49:29.427Z,100398.95
2019-05-25T19:52:15.766Z,100405.58
2019-05-25T19:55:01.990Z,100406.59
2019-05-25T19:57:48.082Z,100407.41
2019-05-25T20:00:34.097Z,100408.93
2019-05-25T20:03:20.106Z,100403.77
2019-05-25T20:06:06.357Z,100404.56
2019-05-25T20:08:52.486Z,100407.91
2019-05-25T20:11:38.606Z,100407.61
2019-05-25T20:14:24.900Z,100418.30
2019-05-25T20:17:10.905Z,100410.03
2019-05-25T20:19:57.179Z,100409.54
2019-05-25T20:22:43.246Z,100411.55
2019-05-25T20:25:29.392Z,100413.50
2019-05-25T20:28:15.686Z,100408.22
2019-05-25T20:31:01.749Z,100415.27
2019-05-25T20:33:47.909Z,100420.53
2019-05-25T20:36:34.096Z,100423.13
2019-05-25T20:39:20.226Z,100421.11
2019-05-25T20:42:06.382Z,100417.80
2019-05-25T20:44:52.584Z,100416.14
2019-05-25T20:47:38.979Z,100419.60
2019-05-25T20:50:25.008Z,100424.41
2019-05-25T20:53:11.320Z,100423.56
2019-05-25T20:55:57.350Z,100421.15
2019-05-25T20:58:43.621Z,100422.38
2019-05-25T21:01:29.660Z,100420.20
2019-05-25T21:04:15.806Z,100421.25
2019-05-25T21:07:02.051Z,100427.33
2019-05-25T21:09:48.111Z,100423.03
2019-05-25T21:12:34.261Z,100418.48
2019-05-25T21:15:20.662Z,100426.34
2019-05-25T21:18:06.711Z,100426.89
2019-05-25T21:20:52.940Z,100422.16
2019-05-25T21:23:39.101Z,100418.88
2019-05-25T21:26:25.420Z,100413.59
2019-05-25T21:29:11.860Z,100416.73
2019-05-25T21:31:58.390Z,100412.00
2019-05-25T21:34:44.452Z,100413.48
2019-05-25T21:37:30.451Z,100418.59
2019-05-25T21:40:16.754Z,100415.42
2019-05-25T21:43:02.725Z,100419.34
2019-05-25T21:45:51.336Z,100413.08
2019-05-25T21:48:37.246Z,100416.31
2019-05-25T21:51:23.385Z,100411.83
2019-05-25T21:54:09.870Z,100410.17
2019-05-25T21:56:55.959Z,100414.69
2019-05-25T21:59:41.985Z,100415.00
2019-05-25T22:02:28.255Z,100414.66
2019-05-25T22:05:14.529Z,100405.39
2019-05-25T22:08:00.460Z,100401.34
2019-05-25T22:10:46.521Z,100399.62
2019-05-25T22:13:32.606Z,100400.59
2019-05-25T22:16:18.804Z,100396.27
2019-05-25T22:19:04.736Z,100395.78
2019-05-25T22:21:51.183Z,100399.20
2019-05-25T22:24:37.730Z,100399.95
2019-05-25T22:27:23.820Z,100401.00
2019-05-25T22:30:10.320Z,100399.28
2019-05-25T22:32:57.195Z,100398.22
2019-05-25T22:35:43.942Z,100394.20
2019-05-25T22:38:30.531Z,100395.28
2019-05-25T22:41:19.808Z,100388.27
2019-05-25T22:44:06.087Z,100388.33
2019-05-25T22:46:52.571Z,100381.27
2019-05-25T22:49:38.975Z,100372.16
2019-05-25T22:52:25.245Z,100367.88
2019-05-25T22:55:11.699Z,100367.13
2019-05-25T22:57:57.908Z,100365.55
2019-05-25T23:00:44.275Z,100365.55
2019-05-25T23:03:30.250Z,100370.98
2019-05-25T23:06:16.530Z,100369.02
2019-05-25T23:09:04.521Z,100359.29
2019-05-25T23:11:50.663Z,100347.98
2019-05-25T23:14:37.115Z,100349.19
2019-05-25T23:17:23.240Z,100344.97
2019-05-25T23:20:09.687Z,100345.87
2019-05-25T23:22:56.246Z,100340.19
2019-05-25T23:25:42.650Z,100339.02
2019-05-25T23:28:29.121Z,100347.68
2019-05-25T23:31:18.218Z,100340.39
2019-05-25T23:34:04.521Z,100337.45
2019-05-25T23:36:50.638Z,100333.06
2019-05-25T23:39:37.100Z,100331.28
2019-05-25T23:42:23.386Z,100332.82
2019-05-25T23:45:11.481Z,100332.72
2019-05-25T23:47:57.661Z,100332.23
2019-05-25T23:50:44.003Z,100327.93
2019-05-25T23:53:30.670Z,100322.08
2019-05-25T23:56:16.744Z,100313.26
2019-05-25T23:59:02.803Z,100312.16
